Terminal Aerodrome Forecast
Issued by NWS Boston, MA

Current Version | Previous Version | Text Only | Print | Product List | Glossary On
Versions: 1 2 3 4 5 6 7 8 9 10 11 12 13 14 15 16 17 18 19 20 21 22 23 24 25 26 27 28 29 30 31 32 33 34 35 36 37 38 39 40 41 42 43 44
000 FTUS41 KBOX 252332 TAFPVD TAF KPVD 252332Z 2600/2624 03006KT P6SM SCT035 BKN050 FM260300 04004KT P6SM SCT050 SCT200 FM261600 07006KT P6SM FEW250 FM261700 12006KT P6SM FEW250 FM262000 16008KT P6SM FEW250=

USA.gov is the U.S. government's official web portal to all federal, state and local government web resources and services.